Time,TemperatureF,DewpointF,PressureIn,WindDirection,WindDirectionDegrees,WindSpeedMPH,WindSpeedGustMPH,Humidity,HourlyPrecipIn,Conditions,Clouds,dailyrainin,SoftwareType,DateUTC
2013-01-21 00:00:00,30.1,11.3,28.16,East,90,0.0,4.0,45,0.00,,,0.00,Weather View 32 v70,2013-01-21 05:00:00,
2013-01-21 00:10:00,28.5,9.8,28.16,East,90,0.0,4.0,45,0.00,,,0.00,Weather View 32 v70,2013-01-21 05:10:00,
2013-01-21 00:12:00,28.3,11.1,28.16,East,90,0.0,4.0,48,0.00,,,0.00,Weather View 32 v70,2013-01-21 05:12:00,
2013-01-21 00:17:00,27.7,11.9,28.16,North,360,0.0,4.0,51,0.00,,,0.00,Weather View 32 v70,2013-01-21 05:17:00,
2013-01-21 00:22:00,26.9,8.9,28.16,East,90,0.0,4.0,46,0.00,,,0.00,Weather View 32 v70,2013-01-21 05:22:00,
2013-01-21 00:27:00,26.7,10.1,28.16,East,90,0.0,4.0,49,0.00,,,0.00,Weather View 32 v70,2013-01-21 05:27:00,
2013-01-21 00:32:00,26.5,9.4,28.15,NNE,22,1.0,4.0,48,0.00,,,0.00,Weather View 32 v70,2013-01-21 05:32:00,
2013-01-21 00:37:00,26.3,12.3,28.15,WNW,292,0.0,4.0,55,0.00,,,0.00,Weather View 32 v70,2013-01-21 05:37:00,
2013-01-21 00:42:00,25.9,8.9,28.17,WNW,292,0.0,4.0,48,0.00,,,0.00,Weather View 32 v70,2013-01-21 05:42:00,
2013-01-21 00:47:00,25.8,10.6,28.16,WNW,292,1.0,4.0,52,0.00,,,0.00,Weather View 32 v70,2013-01-21 05:47:00,
2013-01-21 00:52:00,25.9,10.2,28.17,WNW,292,1.0,4.0,51,0.00,,,0.00,Weather View 32 v70,2013-01-21 05:52:00,
2013-01-21 00:57:00,25.7,11.8,28.17,WNW,292,0.0,2.0,55,0.00,,,0.00,Weather View 32 v70,2013-01-21 05:57:00,
2013-01-21 01:02:00,25.1,9.5,28.17,WNW,292,0.0,2.0,51,0.00,,,0.00,Weather View 32 v70,2013-01-21 06:02:00,
2013-01-21 01:07:00,24.9,11.4,28.16,NW,315,0.0,3.0,56,0.00,,,0.00,Weather View 32 v70,2013-01-21 06:07:00,
2013-01-21 01:12:00,24.9,9.8,28.17,NW,315,0.0,3.0,52,0.00,,,0.00,Weather View 32 v70,2013-01-21 06:12:00,
2013-01-21 01:17:00,24.7,12.0,28.16,NW,315,0.0,3.0,58,0.00,,,0.00,Weather View 32 v70,2013-01-21 06:17:00,
2013-01-21 01:22:00,24.7,10.0,28.16,NW,315,1.0,3.0,53,0.00,,,0.00,Weather View 32 v70,2013-01-21 06:22:00,
2013-01-21 01:27:00,24.9,11.4,28.17,NW,315,0.0,3.0,56,0.00,,,0.00,Weather View 32 v70,2013-01-21 06:27:00,
2013-01-21 01:32:00,24.9,9.8,28.17,NW,315,0.0,3.0,52,0.00,,,0.00,Weather View 32 v70,2013-01-21 06:32:00,
2013-01-21 01:37:00,25.2,8.3,28.17,NW,315,2.0,3.0,48,0.00,,,0.00,Weather View 32 v70,2013-01-21 06:37:00,
2013-01-21 01:42:00,25.6,10.4,28.17,West,270,0.0,3.0,52,0.00,,,0.00,Weather View 32 v70,2013-01-21 06:42:00,
2013-01-21 01:47:00,25.4,8.4,28.17,West,270,0.0,3.0,48,0.00,,,0.00,Weather View 32 v70,2013-01-21 06:47:00,
2013-01-21 01:52:00,25.7,7.8,28.17,West,270,0.0,3.0,46,0.00,,,0.00,Weather View 32 v70,2013-01-21 06:52:00,
2013-01-21 01:57:00,25.6,7.2,28.17,West,270,0.0,3.0,45,0.00,,,0.00,Weather View 32 v70,2013-01-21 06:57:00,
2013-01-21 02:02:00,25.5,8.1,28.17,West,270,2.0,3.0,47,0.00,,,0.00,Weather View 32 v70,2013-01-21 07:02:00,
2013-01-21 02:08:00,25.3,8.3,28.17,West,270,0.0,2.0,48,0.00,,,0.00,Weather View 32 v70,2013-01-21 07:08:00,
2013-01-21 02:13:00,25.2,10.0,28.17,West,270,0.0,2.0,52,0.00,,,0.00,Weather View 32 v70,2013-01-21 07:13:00,
2013-01-21 02:18:00,24.8,7.4,28.16,West,270,2.0,2.0,47,0.00,,,0.00,Weather View 32 v70,2013-01-21 07:18:00,
2013-01-21 02:23:00,24.9,10.2,28.17,WSW,247,0.0,2.0,53,0.00,,,0.00,Weather View 32 v70,2013-01-21 07:23:00,
2013-01-21 02:28:00,24.9,11.4,28.16,West,270,1.0,3.0,56,0.00,,,0.00,Weather View 32 v70,2013-01-21 07:28:00,
2013-01-21 02:33:00,25.1,8.2,28.16,West,270,0.0,3.0,48,0.00,,,0.00,Weather View 32 v70,2013-01-21 07:33:00,
2013-01-21 02:38:00,24.8,12.1,28.16,West,270,2.0,3.0,58,0.00,,,0.00,Weather View 32 v70,2013-01-21 07:38:00,
2013-01-21 02:43:00,24.2,11.9,28.17,West,270,0.0,3.0,59,0.00,,,0.00,Weather View 32 v70,2013-01-21 07:43:00,
2013-01-21 02:48:00,23.9,10.9,28.17,West,270,1.0,3.0,57,0.00,,,0.00,Weather View 32 v70,2013-01-21 07:48:00,
2013-01-21 02:53:00,24.0,11.0,28.17,West,270,1.0,3.0,57,0.00,,,0.00,Weather View 32 v70,2013-01-21 07:53:00,
2013-01-21 02:58:00,23.9,10.9,28.16,West,270,0.0,3.0,57,0.00,,,0.00,Weather View 32 v70,2013-01-21 07:58:00,
2013-01-21 03:03:00,23.6,10.6,28.16,West,270,0.0,3.0,57,0.00,,,0.00,Weather View 32 v70,2013-01-21 08:03:00,
2013-01-21 03:08:00,23.3,10.3,28.16,West,270,0.0,3.0,57,0.00,,,0.00,Weather View 32 v70,2013-01-21 08:08:00,
2013-01-21 03:13:00,23.3,11.8,28.15,West,270,0.0,3.0,61,0.00,,,0.00,Weather View 32 v70,2013-01-21 08:13:00,
2013-01-21 03:18:00,23.2,8.6,28.15,West,270,0.0,3.0,53,0.00,,,0.00,Weather View 32 v70,2013-01-21 08:18:00,
2013-01-21 03:23:00,23.3,10.7,28.15,West,270,2.0,3.0,58,0.00,,,0.00,Weather View 32 v70,2013-01-21 08:23:00,
2013-01-21 03:28:00,23.5,11.7,28.15,West,270,1.0,2.0,60,0.00,,,0.00,Weather View 32 v70,2013-01-21 08:28:00,
2013-01-21 03:33:00,23.5,11.3,28.15,West,270,1.0,2.0,59,0.00,,,0.00,Weather View 32 v70,2013-01-21 08:33:00,
2013-01-21 03:38:00,23.4,10.4,28.15,West,270,0.0,2.0,57,0.00,,,0.00,Weather View 32 v70,2013-01-21 08:38:00,
2013-01-21 03:43:00,23.2,9.8,28.15,West,270,0.0,2.0,56,0.00,,,0.00,Weather View 32 v70,2013-01-21 08:43:00,
2013-01-21 03:48:00,23.6,8.1,28.15,West,270,0.0,2.0,51,0.00,,,0.00,Weather View 32 v70,2013-01-21 08:48:00,
2013-01-21 03:53:00,24.3,8.3,28.14,West,270,0.0,2.0,50,0.00,,,0.00,Weather View 32 v70,2013-01-21 08:53:00,
2013-01-21 03:58:00,24.9,11.0,28.14,West,270,2.0,2.0,55,0.00,,,0.00,Weather View 32 v70,2013-01-21 08:58:00,
2013-01-21 04:03:00,24.6,11.1,28.14,West,270,0.0,2.0,56,0.00,,,0.00,Weather View 32 v70,2013-01-21 09:03:00,
2013-01-21 04:08:00,24.3,11.6,28.14,West,270,0.0,2.0,58,0.00,,,0.00,Weather View 32 v70,2013-01-21 09:08:00,
2013-01-21 04:13:00,24.5,10.6,28.14,West,270,0.0,2.0,55,0.00,,,0.00,Weather View 32 v70,2013-01-21 09:13:00,
2013-01-21 04:18:00,24.9,12.2,28.14,SE,135,2.0,2.0,58,0.00,,,0.00,Weather View 32 v70,2013-01-21 09:18:00,
2013-01-21 04:23:00,24.9,13.0,28.14,SE,135,2.0,3.0,60,0.00,,,0.00,Weather View 32 v70,2013-01-21 09:23:00,
2013-01-21 04:28:00,24.6,13.4,28.14,SE,135,0.0,3.0,62,0.00,,,0.00,Weather View 32 v70,2013-01-21 09:28:00,
2013-01-21 04:33:00,24.2,13.8,28.14,SE,135,0.0,3.0,64,0.00,,,0.00,Weather View 32 v70,2013-01-21 09:33:00,
2013-01-21 04:38:00,23.9,12.4,28.14,SE,135,0.0,3.0,61,0.00,,,0.00,Weather View 32 v70,2013-01-21 09:38:00,
2013-01-21 04:43:00,23.9,10.9,28.14,SE,135,0.0,3.0,57,0.00,,,0.00,Weather View 32 v70,2013-01-21 09:43:00,
2013-01-21 04:48:00,24.2,10.8,28.14,SE,135,0.0,3.0,56,0.00,,,0.00,Weather View 32 v70,2013-01-21 09:48:00,
2013-01-21 04:53:00,24.3,12.8,28.14,SE,135,0.0,3.0,61,0.00,,,0.00,Weather View 32 v70,2013-01-21 09:53:00,
2013-01-21 04:58:00,24.0,13.6,28.13,SE,135,0.0,3.0,64,0.00,,,0.00,Weather View 32 v70,2013-01-21 09:58:00,
2013-01-21 05:03:00,23.5,14.5,28.13,SE,135,0.0,3.0,68,0.00,,,0.00,Weather View 32 v70,2013-01-21 10:03:00,
2013-01-21 05:08:00,23.1,15.1,28.14,SE,135,0.0,3.0,71,0.00,,,0.00,Weather View 32 v70,2013-01-21 10:08:00,
2013-01-21 05:13:00,22.9,13.9,28.13,SE,135,0.0,3.0,68,0.00,,,0.00,Weather View 32 v70,2013-01-21 10:13:00,
2013-01-21 05:18:00,22.9,14.6,28.14,SE,135,1.0,3.0,70,0.00,,,0.00,Weather View 32 v70,2013-01-21 10:18:00,
2013-01-21 05:23:00,22.8,14.5,28.14,SW,225,2.0,2.0,70,0.00,,,0.00,Weather View 32 v70,2013-01-21 10:23:00,
2013-01-21 05:28:00,22.9,13.9,28.14,SW,225,0.0,2.0,68,0.00,,,0.00,Weather View 32 v70,2013-01-21 10:28:00,
2013-01-21 05:33:00,22.9,11.8,28.14,SW,225,0.0,2.0,62,0.00,,,0.00,Weather View 32 v70,2013-01-21 10:33:00,
2013-01-21 05:38:00,23.5,11.7,28.14,SW,225,0.0,2.0,60,0.00,,,0.00,Weather View 32 v70,2013-01-21 10:38:00,
2013-01-21 05:43:00,23.9,10.5,28.14,SW,225,0.0,2.0,56,0.00,,,0.00,Weather View 32 v70,2013-01-21 10:43:00,
2013-01-21 05:48:00,24.4,11.7,28.14,SW,225,0.0,2.0,58,0.00,,,0.00,Weather View 32 v70,2013-01-21 10:48:00,
2013-01-21 05:53:00,24.8,10.9,28.14,SW,225,0.0,2.0,55,0.00,,,0.00,Weather View 32 v70,2013-01-21 10:53:00,
2013-01-21 05:58:00,25.0,11.9,28.14,SW,225,0.0,2.0,57,0.00,,,0.00,Weather View 32 v70,2013-01-21 10:58:00,
2013-01-21 06:03:00,25.7,11.8,28.14,South,180,2.0,2.0,55,0.00,,,0.00,Weather View 32 v70,2013-01-21 11:03:00,
2013-01-21 06:08:00,26.7,13.9,28.13,SSE,157,2.0,3.0,58,0.00,,,0.00,Weather View 32 v70,2013-01-21 11:08:00,
2013-01-21 06:13:00,27.3,11.5,28.13,SE,135,2.0,4.0,51,0.00,,,0.00,Weather View 32 v70,2013-01-21 11:13:00,
2013-01-21 06:18:00,27.7,11.0,28.13,South,180,2.0,4.0,49,0.00,,,0.00,Weather View 32 v70,2013-01-21 11:18:00,
2013-01-21 06:23:00,27.8,12.9,28.13,South,180,0.0,4.0,53,0.00,,,0.00,Weather View 32 v70,2013-01-21 11:23:00,
2013-01-21 06:28:00,27.4,16.5,28.13,WNW,292,2.0,4.0,63,0.00,,,0.00,Weather View 32 v70,2013-01-21 11:28:00,
2013-01-21 06:33:00,26.4,17.3,28.14,NNW,337,0.0,4.0,68,0.00,,,0.00,Weather View 32 v70,2013-01-21 11:33:00,
2013-01-21 06:38:00,25.8,16.4,28.14,NNW,337,0.0,4.0,67,0.00,,,0.00,Weather View 32 v70,2013-01-21 11:38:00,
2013-01-21 06:44:00,25.3,15.5,28.14,NNW,337,2.0,4.0,66,0.00,,,0.00,Weather View 32 v70,2013-01-21 11:44:00,
2013-01-21 06:49:00,25.1,13.9,28.14,West,270,2.0,4.0,62,0.00,,,0.00,Weather View 32 v70,2013-01-21 11:49:00,
2013-01-21 06:54:00,24.9,15.1,28.14,West,270,0.0,4.0,66,0.00,,,0.00,Weather View 32 v70,2013-01-21 11:54:00,
2013-01-21 06:59:00,24.7,14.3,28.14,West,270,1.0,4.0,64,0.00,,,0.00,Weather View 32 v70,2013-01-21 11:59:00,
2013-01-21 07:04:00,24.7,15.0,28.14,West,270,0.0,4.0,66,0.00,,,0.00,Weather View 32 v70,2013-01-21 12:04:00,
2013-01-21 07:09:00,24.8,15.4,28.14,West,270,1.0,4.0,67,0.00,,,0.00,Weather View 32 v70,2013-01-21 12:09:00,
2013-01-21 07:14:00,24.9,15.5,28.13,West,270,0.0,2.0,67,0.00,,,0.00,Weather View 32 v70,2013-01-21 12:14:00,
2013-01-21 07:19:00,25.3,16.6,28.13,West,270,1.0,2.0,69,0.00,,,0.00,Weather View 32 v70,2013-01-21 12:19:00,
2013-01-21 07:24:00,25.3,16.9,28.13,West,270,0.0,2.0,70,0.00,,,0.00,Weather View 32 v70,2013-01-21 12:24:00,
2013-01-21 07:29:00,26.2,16.0,28.13,SW,225,1.0,2.0,65,0.00,,,0.00,Weather View 32 v70,2013-01-21 12:29:00,
2013-01-21 07:34:00,26.3,16.8,28.13,SW,225,0.0,2.0,67,0.00,,,0.00,Weather View 32 v70,2013-01-21 12:34:00,
2013-01-21 07:39:00,26.3,17.2,28.13,SW,225,0.0,2.0,68,0.00,,,0.00,Weather View 32 v70,2013-01-21 12:39:00,
2013-01-21 07:44:00,26.2,16.4,28.13,NNW,337,2.0,2.0,66,0.00,,,0.00,Weather View 32 v70,2013-01-21 12:44:00,
2013-01-21 07:49:00,26.3,15.8,28.13,NNW,337,0.0,2.0,64,0.00,,,0.00,Weather View 32 v70,2013-01-21 12:49:00,
2013-01-21 07:54:00,26.6,15.7,28.12,NNW,337,0.0,2.0,63,0.00,,,0.00,Weather View 32 v70,2013-01-21 12:54:00,
2013-01-21 07:59:00,26.9,15.2,28.12,NNW,337,0.0,2.0,61,0.00,,,0.00,Weather View 32 v70,2013-01-21 12:59:00,
2013-01-21 08:04:00,27.3,15.6,28.12,NNW,337,1.0,2.0,61,0.00,,,0.00,Weather View 32 v70,2013-01-21 13:04:00,
2013-01-21 08:09:00,27.8,19.3,28.12,NNW,337,0.0,2.0,70,0.00,,,0.00,Weather View 32 v70,2013-01-21 13:09:00,
2013-01-21 08:14:00,27.9,18.7,28.12,NNW,337,0.0,2.0,68,0.00,,,0.00,Weather View 32 v70,2013-01-21 13:14:00,
2013-01-21 08:19:00,27.9,18.7,28.12,NNW,337,0.0,2.0,68,0.00,,,0.00,Weather View 32 v70,2013-01-21 13:19:00,
2013-01-21 08:24:00,28.2,18.3,28.12,NNW,337,0.0,2.0,66,0.00,,,0.00,Weather View 32 v70,2013-01-21 13:24:00,
2013-01-21 08:29:00,28.8,18.9,28.12,WSW,247,1.0,2.0,66,0.00,,,0.00,Weather View 32 v70,2013-01-21 13:29:00,
2013-01-21 08:34:00,29.4,16.0,28.12,WSW,247,1.0,2.0,57,0.00,,,0.00,Weather View 32 v70,2013-01-21 13:34:00,
2013-01-21 08:39:00,30.4,15.7,28.12,SW,225,2.0,3.0,54,0.00,,,0.00,Weather View 32 v70,2013-01-21 13:39:00,
2013-01-21 08:44:00,30.7,18.1,28.12,SW,225,0.0,3.0,59,0.00,,,0.00,Weather View 32 v70,2013-01-21 13:44:00,
2013-01-21 08:49:00,30.4,18.6,28.12,SW,225,2.0,3.0,61,0.00,,,0.00,Weather View 32 v70,2013-01-21 13:49:00,
2013-01-21 08:54:00,30.4,16.6,28.12,SW,225,2.0,3.0,56,0.00,,,0.00,Weather View 32 v70,2013-01-21 13:54:00,
2013-01-21 08:59:00,30.9,15.3,28.12,SW,225,1.0,3.0,52,0.00,,,0.00,Weather View 32 v70,2013-01-21 13:59:00,
2013-01-21 09:04:00,31.0,15.9,28.13,SW,225,1.0,3.0,53,0.00,,,0.00,Weather View 32 v70,2013-01-21 14:04:00,
2013-01-21 09:09:00,30.9,19.0,28.13,WSW,247,1.0,3.0,61,0.00,,,0.00,Weather View 32 v70,2013-01-21 14:09:00,
2013-01-21 09:14:00,30.7,17.7,28.13,WSW,247,2.0,3.0,58,0.00,,,0.00,Weather View 32 v70,2013-01-21 14:14:00,
2013-01-21 09:19:00,30.5,17.9,28.13,WSW,247,2.0,3.0,59,0.00,,,0.00,Weather View 32 v70,2013-01-21 14:19:00,
2013-01-21 09:24:00,30.4,18.6,28.13,WSW,247,0.0,3.0,61,0.00,,,0.00,Weather View 32 v70,2013-01-21 14:24:00,
2013-01-21 09:29:00,30.3,17.3,28.13,WSW,247,1.0,3.0,58,0.00,,,0.00,Weather View 32 v70,2013-01-21 14:29:00,
2013-01-21 09:34:00,30.5,20.5,28.13,WSW,247,0.0,3.0,66,0.00,,,0.00,Weather View 32 v70,2013-01-21 14:34:00,
2013-01-21 09:39:00,30.6,20.9,28.12,WSW,247,0.0,2.0,67,0.00,,,0.00,Weather View 32 v70,2013-01-21 14:39:00,
2013-01-21 09:44:00,30.8,21.5,28.12,WSW,247,0.0,2.0,68,0.00,,,0.00,Weather View 32 v70,2013-01-21 14:44:00,
2013-01-21 09:49:00,30.9,21.9,28.12,WSW,247,0.0,2.0,69,0.00,,,0.00,Weather View 32 v70,2013-01-21 14:49:00,
2013-01-21 09:54:00,31.2,21.2,28.13,WSW,247,0.0,2.0,66,0.00,,,0.00,Weather View 32 v70,2013-01-21 14:54:00,
2013-01-21 09:59:00,31.5,21.8,28.13,North,360,0.0,2.0,67,0.00,,,0.00,Weather View 32 v70,2013-01-21 14:59:00,
2013-01-21 10:04:00,31.6,21.9,28.12,East,90,0.0,2.0,67,0.00,,,0.00,Weather View 32 v70,2013-01-21 15:04:00,
2013-01-21 10:09:00,31.9,22.5,28.12,East,90,0.0,2.0,68,0.00,,,0.00,Weather View 32 v70,2013-01-21 15:09:00,
2013-01-21 10:14:00,32.0,18.9,28.12,East,90,0.0,2.0,58,0.00,,,0.00,Weather View 32 v70,2013-01-21 15:14:00,
2013-01-21 10:19:00,32.3,21.5,28.12,NW,315,2.0,2.0,64,0.00,,,0.00,Weather View 32 v70,2013-01-21 15:19:00,
2013-01-21 10:24:00,32.5,19.4,28.12,West,270,1.0,2.0,58,0.00,,,0.00,Weather View 32 v70,2013-01-21 15:24:00,
2013-01-21 10:29:00,32.8,21.2,28.12,ESE,112,0.0,2.0,62,0.00,,,0.00,Weather View 32 v70,2013-01-21 15:29:00,
2013-01-21 10:34:00,33.1,21.9,28.11,SSE,157,0.0,2.0,63,0.00,,,0.00,Weather View 32 v70,2013-01-21 15:34:00,
2013-01-21 10:39:00,33.5,22.2,28.11,NE,45,0.0,2.0,63,0.00,,,0.00,Weather View 32 v70,2013-01-21 15:39:00,
2013-01-21 10:44:00,33.9,21.1,28.10,NE,45,0.0,2.0,59,0.00,,,0.00,Weather View 32 v70,2013-01-21 15:44:00,
2013-01-21 10:49:00,34.8,17.6,28.10,SW,225,2.0,5.0,49,0.00,,,0.00,Weather View 32 v70,2013-01-21 15:49:00,
2013-01-21 10:54:00,35.2,16.5,28.10,SW,225,2.0,6.0,46,0.00,,,0.00,Weather View 32 v70,2013-01-21 15:54:00,
2013-01-21 10:59:00,35.4,16.7,28.10,South,180,3.0,6.0,46,0.00,,,0.00,Weather View 32 v70,2013-01-21 15:59:00,
2013-01-21 11:04:00,35.6,18.3,28.09,South,180,2.0,6.0,49,0.00,,,0.00,Weather View 32 v70,2013-01-21 16:04:00,
2013-01-21 11:09:00,35.7,18.4,28.08,SE,135,1.0,6.0,49,0.00,,,0.00,Weather View 32 v70,2013-01-21 16:09:00,
2013-01-21 11:14:00,36.2,19.3,28.08,SE,135,0.0,6.0,50,0.00,,,0.00,Weather View 32 v70,2013-01-21 16:14:00,
2013-01-21 11:19:00,36.7,17.3,28.08,SW,225,7.0,7.0,45,0.00,,,0.00,Weather View 32 v70,2013-01-21 16:19:00,
2013-01-21 11:24:00,36.9,17.5,28.08,South,180,6.0,8.0,45,0.00,,,0.00,Weather View 32 v70,2013-01-21 16:24:00,
2013-01-21 11:29:00,37.1,17.2,28.08,South,180,2.0,8.0,44,0.00,,,0.00,Weather View 32 v70,2013-01-21 16:29:00,
2013-01-21 11:34:00,37.4,15.3,28.07,South,180,6.0,9.0,40,0.00,,,0.00,Weather View 32 v70,2013-01-21 16:34:00,
2013-01-21 11:39:00,38.2,16.0,28.06,SW,225,10.0,13.0,40,0.00,,,0.00,Weather View 32 v70,2013-01-21 16:39:00,
2013-01-21 11:45:00,39.4,16.5,28.06,SW,225,11.0,14.0,39,0.00,,,0.00,Weather View 32 v70,2013-01-21 16:45:00,
2013-01-21 11:50:00,40.1,14.6,28.06,SSE,157,12.0,20.0,35,0.00,,,0.00,Weather View 32 v70,2013-01-21 16:50:00,
2013-01-21 11:55:00,40.5,15.6,28.05,SW,225,11.0,20.0,36,0.00,,,0.00,Weather View 32 v70,2013-01-21 16:55:00,
2013-01-21 12:00:00,40.1,14.6,28.05,SW,225,7.0,20.0,35,0.00,,,0.00,Weather View 32 v70,2013-01-21 17:00:00,
2013-01-21 12:05:00,39.8,13.7,28.04,SSW,202,9.0,20.0,34,0.00,,,0.00,Weather View 32 v70,2013-01-21 17:05:00,
2013-01-21 12:10:00,40.0,13.9,28.04,South,180,13.0,20.0,34,0.00,,,0.00,Weather View 32 v70,2013-01-21 17:10:00,
2013-01-21 12:15:00,40.0,13.9,28.04,SW,225,9.0,20.0,34,0.00,,,0.00,Weather View 32 v70,2013-01-21 17:15:00,
2013-01-21 12:20:00,40.2,14.7,28.03,SW,225,8.0,20.0,35,0.00,,,0.00,Weather View 32 v70,2013-01-21 17:20:00,
2013-01-21 12:25:00,40.3,14.1,28.02,SW,225,8.0,20.0,34,0.00,,,0.00,Weather View 32 v70,2013-01-21 17:25:00,
2013-01-21 12:30:00,40.6,14.4,28.02,South,180,8.0,20.0,34,0.00,,,0.00,Weather View 32 v70,2013-01-21 17:30:00,
2013-01-21 12:35:00,41.1,14.1,28.02,West,270,11.0,20.0,33,0.00,,,0.00,Weather View 32 v70,2013-01-21 17:35:00,
2013-01-21 12:40:00,41.1,12.7,28.02,West,270,9.0,21.0,31,0.00,,,0.00,Weather View 32 v70,2013-01-21 17:40:00,
2013-01-21 12:45:00,41.2,12.1,28.01,WSW,247,13.0,21.0,30,0.00,,,0.00,Weather View 32 v70,2013-01-21 17:45:00,
2013-01-21 12:50:00,41.1,11.2,28.01,SW,225,10.0,21.0,29,0.00,,,0.00,Weather View 32 v70,2013-01-21 17:50:00,
2013-01-21 12:55:00,41.2,12.8,28.01,SW,225,14.0,21.0,31,0.00,,,0.00,Weather View 32 v70,2013-01-21 17:55:00,
2013-01-21 13:00:00,41.2,13.5,28.00,SW,225,11.0,21.0,32,0.00,,,0.00,Weather View 32 v70,2013-01-21 18:00:00,
2013-01-21 13:05:00,41.2,14.2,28.00,South,180,10.0,21.0,33,0.00,,,0.00,Weather View 32 v70,2013-01-21 18:05:00,
2013-01-21 13:10:00,41.1,14.1,28.00,SW,225,6.0,21.0,33,0.00,,,0.00,Weather View 32 v70,2013-01-21 18:10:00,
2013-01-21 13:15:00,41.2,14.2,27.99,SW,225,9.0,21.0,33,0.00,,,0.00,Weather View 32 v70,2013-01-21 18:15:00,
2013-01-21 13:20:00,41.6,14.6,27.99,West,270,7.0,21.0,33,0.00,,,0.00,Weather View 32 v70,2013-01-21 18:20:00,
2013-01-21 13:25:00,42.7,14.9,27.98,SW,225,13.0,22.0,32,0.00,,,0.00,Weather View 32 v70,2013-01-21 18:25:00,
2013-01-21 13:30:00,43.2,14.6,27.98,SW,225,16.0,24.0,31,0.00,,,0.00,Weather View 32 v70,2013-01-21 18:30:00,
2013-01-21 13:35:00,43.6,16.4,27.97,West,270,9.0,24.0,33,0.00,,,0.00,Weather View 32 v70,2013-01-21 18:35:00,
2013-01-21 13:40:00,43.7,15.7,27.97,WSW,247,16.0,24.0,32,0.00,,,0.00,Weather View 32 v70,2013-01-21 18:40:00,
2013-01-21 13:45:00,43.9,15.2,27.96,West,270,6.0,24.0,31,0.00,,,0.00,Weather View 32 v70,2013-01-21 18:45:00,
2013-01-21 13:50:00,44.3,15.5,27.97,SW,225,16.0,24.0,31,0.00,,,0.00,Weather View 32 v70,2013-01-21 18:50:00,
2013-01-21 13:55:00,44.5,17.8,27.96,West,270,12.0,24.0,34,0.00,,,0.00,Weather View 32 v70,2013-01-21 18:55:00,
2013-01-21 14:00:00,44.9,18.9,27.96,WNW,292,13.0,24.0,35,0.00,,,0.00,Weather View 32 v70,2013-01-21 19:00:00,
2013-01-21 14:05:00,44.8,19.4,27.96,West,270,17.0,24.0,36,0.00,,,0.00,Weather View 32 v70,2013-01-21 19:05:00,
2013-01-21 14:10:00,44.5,17.8,27.96,SW,225,9.0,26.0,34,0.00,,,0.00,Weather View 32 v70,2013-01-21 19:10:00,
2013-01-21 14:15:00,43.9,16.6,27.96,SW,225,16.0,31.0,33,0.00,,,0.00,Weather View 32 v70,2013-01-21 19:15:00,
2013-01-21 14:21:00,43.9,18.0,27.95,SW,225,16.0,31.0,35,0.00,,,0.00,Weather View 32 v70,2013-01-21 19:21:00,
2013-01-21 14:26:00,43.8,16.5,27.95,SW,225,16.0,31.0,33,0.00,,,0.00,Weather View 32 v70,2013-01-21 19:26:00,
2013-01-21 14:31:00,44.1,18.2,27.95,WSW,247,11.0,31.0,35,0.00,,,0.00,Weather View 32 v70,2013-01-21 19:31:00,
2013-01-21 14:36:00,43.9,18.0,27.94,West,270,20.0,31.0,35,0.00,,,0.00,Weather View 32 v70,2013-01-21 19:36:00,
2013-01-21 14:41:00,44.0,19.4,27.93,SW,225,13.0,31.0,37,0.00,,,0.00,Weather View 32 v70,2013-01-21 19:41:00,
2013-01-21 14:46:00,44.2,18.2,27.94,SW,225,11.0,31.0,35,0.00,,,0.00,Weather View 32 v70,2013-01-21 19:46:00,
2013-01-21 14:51:00,44.2,17.6,27.94,West,270,12.0,31.0,34,0.00,,,0.00,Weather View 32 v70,2013-01-21 19:51:00,
2013-01-21 14:56:00,44.2,18.9,27.94,West,270,19.0,31.0,36,0.00,,,0.00,Weather View 32 v70,2013-01-21 19:56:00,
2013-01-21 15:01:00,43.9,17.3,27.94,SW,225,16.0,31.0,34,0.00,,,0.00,Weather View 32 v70,2013-01-21 20:01:00,
2013-01-21 15:06:00,43.9,18.0,27.94,West,270,11.0,31.0,35,0.00,,,0.00,Weather View 32 v70,2013-01-21 20:06:00,
2013-01-21 15:11:00,44.1,18.2,27.94,SW,225,11.0,31.0,35,0.00,,,0.00,Weather View 32 v70,2013-01-21 20:11:00,
2013-01-21 15:16:00,44.1,17.5,27.94,WSW,247,16.0,29.0,34,0.00,,,0.00,Weather View 32 v70,2013-01-21 20:16:00,
2013-01-21 15:21:00,43.9,16.6,27.93,WSW,247,8.0,29.0,33,0.00,,,0.00,Weather View 32 v70,2013-01-21 20:21:00,
2013-01-21 15:26:00,44.1,17.5,27.94,SW,225,11.0,29.0,34,0.00,,,0.00,Weather View 32 v70,2013-01-21 20:26:00,
2013-01-21 15:31:00,43.9,17.3,27.93,SSW,202,15.0,29.0,34,0.00,,,0.00,Weather View 32 v70,2013-01-21 20:31:00,
2013-01-21 15:36:00,44.2,18.2,27.94,WSW,247,11.0,29.0,35,0.00,,,0.00,Weather View 32 v70,2013-01-21 20:36:00,
2013-01-21 15:41:00,43.9,17.3,27.94,WSW,247,13.0,29.0,34,0.00,,,0.00,Weather View 32 v70,2013-01-21 20:41:00,
2013-01-21 15:46:00,43.8,17.2,27.94,SW,225,12.0,29.0,34,0.00,,,0.00,Weather View 32 v70,2013-01-21 20:46:00,
2013-01-21 15:51:00,43.8,16.5,27.94,SW,225,17.0,29.0,33,0.00,,,0.00,Weather View 32 v70,2013-01-21 20:51:00,
2013-01-21 15:56:00,43.8,16.5,27.93,SW,225,6.0,29.0,33,0.00,,,0.00,Weather View 32 v70,2013-01-21 20:56:00,
2013-01-21 16:01:00,43.9,18.0,27.93,WSW,247,6.0,29.0,35,0.00,,,0.00,Weather View 32 v70,2013-01-21 21:01:00,
2013-01-21 16:06:00,43.9,17.3,27.94,West,270,11.0,29.0,34,0.00,,,0.00,Weather View 32 v70,2013-01-21 21:06:00,
2013-01-21 16:11:00,43.8,17.9,27.94,WSW,247,11.0,29.0,35,0.00,,,0.00,Weather View 32 v70,2013-01-21 21:11:00,
2013-01-21 16:16:00,43.7,16.4,27.94,SW,225,13.0,26.0,33,0.00,,,0.00,Weather View 32 v70,2013-01-21 21:16:00,
2013-01-21 16:21:00,43.4,15.5,27.94,SW,225,10.0,26.0,32,0.00,,,0.00,Weather View 32 v70,2013-01-21 21:21:00,
2013-01-21 16:26:00,43.1,15.9,27.94,SW,225,9.0,26.0,33,0.00,,,0.00,Weather View 32 v70,2013-01-21 21:26:00,
2013-01-21 16:31:00,42.9,15.7,27.94,WSW,247,11.0,26.0,33,0.00,,,0.00,Weather View 32 v70,2013-01-21 21:31:00,
2013-01-21 16:36:00,42.8,17.0,27.95,West,270,7.0,26.0,35,0.00,,,0.00,Weather View 32 v70,2013-01-21 21:36:00,
2013-01-21 16:41:00,42.6,14.8,27.95,West,270,9.0,26.0,32,0.00,,,0.00,Weather View 32 v70,2013-01-21 21:41:00,
2013-01-21 16:46:00,42.3,12.3,27.95,WNW,292,14.0,29.0,29,0.00,,,0.00,Weather View 32 v70,2013-01-21 21:46:00,
2013-01-21 16:51:00,42.0,12.0,27.95,WNW,292,12.0,29.0,29,0.00,,,0.00,Weather View 32 v70,2013-01-21 21:51:00,
2013-01-21 16:56:00,41.7,11.7,27.95,WNW,292,21.0,29.0,29,0.00,,,0.00,Weather View 32 v70,2013-01-21 21:56:00,
2013-01-21 17:01:00,41.4,10.7,27.95,West,270,9.0,29.0,28,0.00,,,0.00,Weather View 32 v70,2013-01-21 22:01:00,
2013-01-21 17:06:00,40.8,11.0,27.96,West,270,9.0,29.0,29,0.00,,,0.00,Weather View 32 v70,2013-01-21 22:06:00,
2013-01-21 17:11:00,40.3,10.5,27.96,WNW,292,14.0,29.0,29,0.00,,,0.00,Weather View 32 v70,2013-01-21 22:11:00,
2013-01-21 17:17:00,39.7,10.0,27.96,NW,315,9.0,29.0,29,0.00,,,0.00,Weather View 32 v70,2013-01-21 22:17:00,
2013-01-21 17:22:00,39.1,9.5,27.96,WNW,292,9.0,29.0,29,0.00,,,0.00,Weather View 32 v70,2013-01-21 22:22:00,
2013-01-21 17:27:00,38.6,9.8,27.96,West,270,12.0,29.0,30,0.00,,,0.00,Weather View 32 v70,2013-01-21 22:27:00,
2013-01-21 17:32:00,38.3,8.8,27.96,NW,315,17.0,29.0,29,0.00,,,0.00,Weather View 32 v70,2013-01-21 22:32:00,
2013-01-21 17:37:00,38.1,8.6,27.97,WNW,292,14.0,29.0,29,0.00,,,0.00,Weather View 32 v70,2013-01-21 22:37:00,
2013-01-21 17:42:00,37.9,7.7,27.97,West,270,6.0,29.0,28,0.00,,,0.00,Weather View 32 v70,2013-01-21 22:42:00,
2013-01-21 17:47:00,37.7,8.3,27.97,West,270,9.0,23.0,29,0.00,,,0.00,Weather View 32 v70,2013-01-21 22:47:00,
2013-01-21 17:52:00,37.4,8.8,27.97,WNW,292,12.0,23.0,30,0.00,,,0.00,Weather View 32 v70,2013-01-21 22:52:00,
2013-01-21 17:57:00,37.2,9.3,27.97,West,270,12.0,23.0,31,0.00,,,0.00,Weather View 32 v70,2013-01-21 22:57:00,
2013-01-21 18:02:00,37.0,8.4,27.97,NW,315,11.0,19.0,30,0.00,,,0.00,Weather View 32 v70,2013-01-21 23:02:00,
2013-01-21 18:07:00,36.9,9.1,27.98,WNW,292,4.0,19.0,31,0.00,,,0.00,Weather View 32 v70,2013-01-21 23:07:00,
2013-01-21 18:12:00,36.4,7.9,27.98,West,270,7.0,19.0,30,0.00,,,0.00,Weather View 32 v70,2013-01-21 23:12:00,
2013-01-21 18:17:00,36.0,9.0,27.98,NW,315,10.0,19.0,32,0.00,,,0.00,Weather View 32 v70,2013-01-21 23:17:00,
2013-01-21 18:22:00,35.7,8.7,27.98,West,270,5.0,19.0,32,0.00,,,0.00,Weather View 32 v70,2013-01-21 23:22:00,
2013-01-21 18:27:00,35.3,9.0,27.99,WNW,292,10.0,19.0,33,0.00,,,0.00,Weather View 32 v70,2013-01-21 23:27:00,
2013-01-21 18:32:00,35.1,8.9,27.99,WNW,292,10.0,19.0,33,0.00,,,0.00,Weather View 32 v70,2013-01-21 23:32:00,
2013-01-21 18:37:00,34.9,9.3,27.99,WNW,292,11.0,19.0,34,0.00,,,0.00,Weather View 32 v70,2013-01-21 23:37:00,
2013-01-21 18:42:00,34.9,9.3,28.00,West,270,10.0,18.0,34,0.00,,,0.00,Weather View 32 v70,2013-01-21 23:42:00,
2013-01-21 18:47:00,34.9,9.3,27.99,West,270,9.0,22.0,34,0.00,,,0.00,Weather View 32 v70,2013-01-21 23:47:00,
2013-01-21 18:52:00,34.7,9.8,28.00,West,270,10.0,22.0,35,0.00,,,0.00,Weather View 32 v70,2013-01-21 23:52:00,
2013-01-21 18:57:00,34.7,9.2,27.99,WNW,292,7.0,22.0,34,0.00,,,0.00,Weather View 32 v70,2013-01-21 23:57:00,
2013-01-21 19:02:00,34.4,8.9,28.00,West,270,6.0,22.0,34,0.00,,,0.00,Weather View 32 v70,2013-01-22 00:02:00,
2013-01-21 19:07:00,34.1,8.6,27.99,WNW,292,18.0,22.0,34,0.00,,,0.00,Weather View 32 v70,2013-01-22 00:07:00,
2013-01-21 19:12:00,34.0,7.9,27.99,WNW,292,16.0,24.0,33,0.00,,,0.00,Weather View 32 v70,2013-01-22 00:12:00,
2013-01-21 19:17:00,33.9,8.5,27.99,WNW,292,9.0,24.0,34,0.00,,,0.00,Weather View 32 v70,2013-01-22 00:17:00,
2013-01-21 19:22:00,33.6,8.8,28.00,WNW,292,12.0,24.0,35,0.00,,,0.00,Weather View 32 v70,2013-01-22 00:22:00,
2013-01-21 19:27:00,33.2,9.1,28.00,WNW,292,12.0,24.0,36,0.00,,,0.00,Weather View 32 v70,2013-01-22 00:27:00,
2013-01-21 19:32:00,32.9,9.5,28.00,NW,315,6.0,24.0,37,0.00,,,0.00,Weather View 32 v70,2013-01-22 00:32:00,
2013-01-21 19:37:00,32.3,9.5,28.00,WNW,292,9.0,24.0,38,0.00,,,0.00,Weather View 32 v70,2013-01-22 00:37:00,
2013-01-21 19:42:00,32.2,9.4,28.00,WNW,292,17.0,24.0,38,0.00,,,0.00,Weather View 32 v70,2013-01-22 00:42:00,
2013-01-21 19:48:00,32.1,10.5,28.00,NW,315,13.0,24.0,40,0.00,,,0.00,Weather View 32 v70,2013-01-22 00:48:00,
2013-01-21 19:53:00,31.9,10.9,28.00,WNW,292,16.0,24.0,41,0.00,,,0.00,Weather View 32 v70,2013-01-22 00:53:00,
2013-01-21 19:58:00,31.8,10.8,28.00,WNW,292,10.0,24.0,41,0.00,,,0.00,Weather View 32 v70,2013-01-22 00:58:00,
2013-01-21 20:03:00,31.6,10.0,28.00,WNW,292,12.0,24.0,40,0.00,,,0.00,Weather View 32 v70,2013-01-22 01:03:00,
2013-01-21 20:08:00,31.2,10.2,28.00,NW,315,13.0,24.0,41,0.00,,,0.00,Weather View 32 v70,2013-01-22 01:08:00,
2013-01-21 20:13:00,30.9,9.9,28.00,NW,315,11.0,24.0,41,0.00,,,0.00,Weather View 32 v70,2013-01-22 01:13:00,
2013-01-21 20:18:00,30.6,9.7,28.00,NW,315,19.0,24.0,41,0.00,,,0.00,Weather View 32 v70,2013-01-22 01:18:00,
2013-01-21 20:23:00,30.4,8.9,28.00,WNW,292,9.0,24.0,40,0.00,,,0.00,Weather View 32 v70,2013-01-22 01:23:00,
2013-01-21 20:28:00,30.0,9.7,28.00,NW,315,8.0,24.0,42,0.00,,,0.00,Weather View 32 v70,2013-01-22 01:28:00,
2013-01-21 20:33:00,29.7,9.4,28.00,WNW,292,12.0,24.0,42,0.00,,,0.00,Weather View 32 v70,2013-01-22 01:33:00,
2013-01-21 20:38:00,29.7,8.9,28.00,WNW,292,14.0,24.0,41,0.00,,,0.00,Weather View 32 v70,2013-01-22 01:38:00,
2013-01-21 20:43:00,29.6,8.8,28.00,West,270,14.0,24.0,41,0.00,,,0.00,Weather View 32 v70,2013-01-22 01:43:00,
2013-01-21 20:48:00,29.5,8.7,28.01,WNW,292,12.0,24.0,41,0.00,,,0.00,Weather View 32 v70,2013-01-22 01:48:00,
2013-01-21 20:53:00,29.5,8.7,28.00,West,270,9.0,24.0,41,0.00,,,0.00,Weather View 32 v70,2013-01-22 01:53:00,
2013-01-21 20:58:00,29.3,8.5,28.01,WNW,292,10.0,24.0,41,0.00,,,0.00,Weather View 32 v70,2013-01-22 01:58:00,
2013-01-21 21:03:00,29.2,7.9,28.01,WNW,292,9.0,24.0,40,0.00,,,0.00,Weather View 32 v70,2013-01-22 02:03:00,
2013-01-21 21:08:00,28.9,7.6,28.02,WNW,292,24.0,24.0,40,0.00,,,0.00,Weather View 32 v70,2013-01-22 02:08:00,
2013-01-21 21:13:00,28.8,7.5,28.02,West,270,11.0,24.0,40,0.00,,,0.00,Weather View 32 v70,2013-01-22 02:13:00,
2013-01-21 21:18:00,28.7,8.0,28.02,WNW,292,17.0,24.0,41,0.00,,,0.00,Weather View 32 v70,2013-01-22 02:18:00,
2013-01-21 21:23:00,28.6,7.9,28.02,West,270,11.0,24.0,41,0.00,,,0.00,Weather View 32 v70,2013-01-22 02:23:00,
2013-01-21 21:28:00,28.3,8.1,28.02,West,270,16.0,24.0,42,0.00,,,0.00,Weather View 32 v70,2013-01-22 02:28:00,
2013-01-21 21:33:00,28.2,8.0,28.02,West,270,11.0,24.0,42,0.00,,,0.00,Weather View 32 v70,2013-01-22 02:33:00,
2013-01-21 21:38:00,27.9,8.3,28.02,NW,315,11.0,24.0,43,0.00,,,0.00,Weather View 32 v70,2013-01-22 02:38:00,
2013-01-21 21:43:00,27.5,7.9,28.02,WNW,292,8.0,24.0,43,0.00,,,0.00,Weather View 32 v70,2013-01-22 02:43:00,
2013-01-21 21:48:00,27.3,8.2,28.02,West,270,9.0,24.0,44,0.00,,,0.00,Weather View 32 v70,2013-01-22 02:48:00,
2013-01-21 21:53:00,27.1,8.1,28.02,NW,315,7.0,24.0,44,0.00,,,0.00,Weather View 32 v70,2013-01-22 02:53:00,
2013-01-21 21:58:00,27.0,7.5,28.02,WNW,292,11.0,24.0,43,0.00,,,0.00,Weather View 32 v70,2013-01-22 02:58:00,
2013-01-21 22:03:00,27.1,8.1,28.02,WNW,292,10.0,24.0,44,0.00,,,0.00,Weather View 32 v70,2013-01-22 03:03:00,
2013-01-21 22:08:00,26.9,7.9,28.02,WNW,292,11.0,24.0,44,0.00,,,0.00,Weather View 32 v70,2013-01-22 03:08:00,
2013-01-21 22:13:00,26.8,8.8,28.02,WNW,292,14.0,24.0,46,0.00,,,0.00,Weather View 32 v70,2013-01-22 03:13:00,
2013-01-21 22:18:00,26.9,8.4,28.02,West,270,11.0,22.0,45,0.00,,,0.00,Weather View 32 v70,2013-01-22 03:18:00,
2013-01-21 22:23:00,26.7,8.2,28.02,West,270,14.0,22.0,45,0.00,,,0.00,Weather View 32 v70,2013-01-22 03:23:00,
2013-01-21 22:29:00,26.6,7.6,28.02,NW,315,16.0,22.0,44,0.00,,,0.00,Weather View 32 v70,2013-01-22 03:29:00,
2013-01-21 22:34:00,26.6,8.1,28.02,West,270,7.0,22.0,45,0.00,,,0.00,Weather View 32 v70,2013-01-22 03:34:00,
2013-01-21 22:39:00,26.4,7.9,28.03,WNW,292,11.0,22.0,45,0.00,,,0.00,Weather View 32 v70,2013-01-22 03:39:00,
2013-01-21 22:44:00,26.2,6.7,28.03,WNW,292,13.0,27.0,43,0.00,,,0.00,Weather View 32 v70,2013-01-22 03:44:00,
2013-01-21 22:49:00,25.9,7.5,28.03,West,270,12.0,27.0,45,0.00,,,0.00,Weather View 32 v70,2013-01-22 03:49:00,
2013-01-21 22:54:00,25.8,7.9,28.03,West,270,17.0,27.0,46,0.00,,,0.00,Weather View 32 v70,2013-01-22 03:54:00,
2013-01-21 22:59:00,25.5,8.5,28.04,WNW,292,7.0,27.0,48,0.00,,,0.00,Weather View 32 v70,2013-01-22 03:59:00,
2013-01-21 23:04:00,25.3,7.9,28.04,NW,315,16.0,27.0,47,0.00,,,0.00,Weather View 32 v70,2013-01-22 04:04:00,
2013-01-21 23:09:00,25.2,8.3,28.03,WNW,292,8.0,27.0,48,0.00,,,0.00,Weather View 32 v70,2013-01-22 04:09:00,
2013-01-21 23:14:00,24.9,8.4,28.05,WNW,292,9.0,27.0,49,0.00,,,0.00,Weather View 32 v70,2013-01-22 04:14:00,
2013-01-21 23:19:00,24.8,7.9,28.05,West,270,16.0,27.0,48,0.00,,,0.00,Weather View 32 v70,2013-01-22 04:19:00,
2013-01-21 23:24:00,24.7,7.8,28.04,WSW,247,7.0,27.0,48,0.00,,,0.00,Weather View 32 v70,2013-01-22 04:24:00,
2013-01-21 23:29:00,24.5,7.6,28.04,WNW,292,11.0,27.0,48,0.00,,,0.00,Weather View 32 v70,2013-01-22 04:29:00,
2013-01-21 23:34:00,24.3,6.5,28.04,West,270,8.0,27.0,46,0.00,,,0.00,Weather View 32 v70,2013-01-22 04:34:00,
2013-01-21 23:39:00,24.2,7.8,28.04,NW,315,11.0,27.0,49,0.00,,,0.00,Weather View 32 v70,2013-01-22 04:39:00,
2013-01-21 23:44:00,23.9,7.5,28.04,NW,315,9.0,27.0,49,0.00,,,0.00,Weather View 32 v70,2013-01-22 04:44:00,
2013-01-21 23:49:00,23.8,7.4,28.05,WNW,292,10.0,27.0,49,0.00,,,0.00,Weather View 32 v70,2013-01-22 04:49:00,
2013-01-21 23:54:00,23.6,9.4,28.04,NW,315,6.0,24.0,54,0.00,,,0.00,Weather View 32 v70,2013-01-22 04:54:00,
2013-01-21 23:59:00,23.3,9.1,28.04,NW,315,11.0,23.0,54,0.00,,,0.00,Weather View 32 v70,2013-01-22 04:59:00,